sensor_id;sensor_type;location;lat;lon;timestamp;temperature;humidity
11005;DHT22;5555;59.622;16.556;2023-03-23T00:00:51;6.70;99.90
11005;DHT22;5555;59.622;16.556;2023-03-23T00:03:16;6.70;99.90
11005;DHT22;5555;59.622;16.556;2023-03-23T00:05:42;6.60;99.90
11005;DHT22;5555;59.622;16.556;2023-03-23T00:08:19;6.50;99.90
11005;DHT22;5555;59.622;16.556;2023-03-23T00:10:51;6.50;99.90
11005;DHT22;5555;59.622;16.556;2023-03-23T00:13:23;6.50;99.90
11005;DHT22;5555;59.622;16.556;2023-03-23T00:15:49;6.40;99.90
11005;DHT22;5555;59.622;16.556;2023-03-23T00:18:15;6.40;99.90
11005;DHT22;5555;59.622;16.556;2023-03-23T00:20:57;6.40;99.90
11005;DHT22;5555;59.622;16.556;2023-03-23T00:23:25;6.40;99.90
11005;DHT22;5555;59.622;16.556;2023-03-23T00:25:54;6.30;99.90
11005;DHT22;5555;59.622;16.556;2023-03-23T00:28:24;6.30;99.90
11005;DHT22;5555;59.622;16.556;2023-03-23T00:31:03;6.30;99.90
11005;DHT22;5555;59.622;16.556;2023-03-23T00:33:33;6.20;99.90
11005;DHT22;5555;59.622;16.556;2023-03-23T00:36:10;6.20;99.90
11005;DHT22;5555;59.622;16.556;2023-03-23T00:38:37;6.20;99.90
11005;DHT22;5555;59.622;16.556;2023-03-23T00:41:03;6.10;99.90
11005;DHT22;5555;59.622;16.556;2023-03-23T00:43:30;6.10;99.90
11005;DHT22;5555;59.622;16.556;2023-03-23T00:45:56;6.00;99.90
11005;DHT22;5555;59.622;16.556;2023-03-23T00:48:27;6.00;99.90
11005;DHT22;5555;59.622;16.556;2023-03-23T00:50:54;5.90;99.90
11005;DHT22;5555;59.622;16.556;2023-03-23T00:53:20;5.80;99.90
11005;DHT22;5555;59.622;16.556;2023-03-23T00:55:46;5.70;99.90
11005;DHT22;5555;59.622;16.556;2023-03-23T00:58:13;5.60;99.90
11005;DHT22;5555;59.622;16.556;2023-03-23T01:00:40;5.60;99.90
11005;DHT22;5555;59.622;16.556;2023-03-23T01:03:07;5.60;99.90
11005;DHT22;5555;59.622;16.556;2023-03-23T01:05:35;5.60;99.90
11005;DHT22;5555;59.622;16.556;2023-03-23T01:08:01;5.50;99.90
11005;DHT22;5555;59.622;16.556;2023-03-23T01:10:27;5.50;99.90
11005;DHT22;5555;59.622;16.556;2023-03-23T01:12:53;5.40;99.90
11005;DHT22;5555;59.622;16.556;2023-03-23T01:15:20;5.40;99.90
11005;DHT22;5555;59.622;16.556;2023-03-23T01:17:46;5.40;99.90
11005;DHT22;5555;59.622;16.556;2023-03-23T01:20:14;5.30;99.90
11005;DHT22;5555;59.622;16.556;2023-03-23T01:22:41;5.30;99.90
11005;DHT22;5555;59.622;16.556;2023-03-23T01:25:08;5.20;99.90
11005;DHT22;5555;59.622;16.556;2023-03-23T01:27:34;5.10;99.90
11005;DHT22;5555;59.622;16.556;2023-03-23T01:30:00;5.10;99.90
11005;DHT22;5555;59.622;16.556;2023-03-23T01:32:26;5.10;99.90
11005;DHT22;5555;59.622;16.556;2023-03-23T01:34:52;5.00;99.90
11005;DHT22;5555;59.622;16.556;2023-03-23T01:37:18;5.00;99.90
11005;DHT22;5555;59.622;16.556;2023-03-23T01:39:45;5.00;99.90
11005;DHT22;5555;59.622;16.556;2023-03-23T01:42:11;4.90;99.90
11005;DHT22;5555;59.622;16.556;2023-03-23T01:47:02;4.90;99.90
11005;DHT22;5555;59.622;16.556;2023-03-23T01:49:33;4.80;99.90
11005;DHT22;5555;59.622;16.556;2023-03-23T01:52:06;4.80;99.90
11005;DHT22;5555;59.622;16.556;2023-03-23T01:54:33;4.80;99.90
11005;DHT22;5555;59.622;16.556;2023-03-23T01:57:07;4.70;99.90
11005;DHT22;5555;59.622;16.556;2023-03-23T01:59:35;4.70;99.90
11005;DHT22;5555;59.622;16.556;2023-03-23T02:02:02;4.70;99.90
11005;DHT22;5555;59.622;16.556;2023-03-23T02:04:28;4.70;99.90
11005;DHT22;5555;59.622;16.556;2023-03-23T02:06:56;4.70;99.90
11005;DHT22;5555;59.622;16.556;2023-03-23T02:09:24;4.70;99.90
11005;DHT22;5555;59.622;16.556;2023-03-23T02:11:51;4.70;99.90
11005;DHT22;5555;59.622;16.556;2023-03-23T02:14:19;4.80;99.90
11005;DHT22;5555;59.622;16.556;2023-03-23T02:17:18;4.70;99.90
11005;DHT22;5555;59.622;16.556;2023-03-23T02:23:21;4.60;99.90
11005;DHT22;5555;59.622;16.556;2023-03-23T02:26:02;4.60;99.90
11005;DHT22;5555;59.622;16.556;2023-03-23T02:31:43;4.60;99.90
11005;DHT22;5555;59.622;16.556;2023-03-23T02:34:18;4.60;99.90
11005;DHT22;5555;59.622;16.556;2023-03-23T02:37:10;4.50;99.90
11005;DHT22;5555;59.622;16.556;2023-03-23T02:39:42;4.50;99.90
11005;DHT22;5555;59.622;16.556;2023-03-23T02:42:13;4.40;99.90
11005;DHT22;5555;59.622;16.556;2023-03-23T02:44:42;4.40;99.90
11005;DHT22;5555;59.622;16.556;2023-03-23T02:47:12;4.40;99.90
11005;DHT22;5555;59.622;16.556;2023-03-23T02:49:41;4.40;99.90
11005;DHT22;5555;59.622;16.556;2023-03-23T02:52:12;4.40;99.90
11005;DHT22;5555;59.622;16.556;2023-03-23T02:54:42;4.40;99.90
11005;DHT22;5555;59.622;16.556;2023-03-23T02:57:08;4.30;99.90
11005;DHT22;5555;59.622;16.556;2023-03-23T02:59:34;4.40;99.90
11005;DHT22;5555;59.622;16.556;2023-03-23T03:04:33;4.40;99.90
11005;DHT22;5555;59.622;16.556;2023-03-23T03:07:26;4.40;99.90
11005;DHT22;5555;59.622;16.556;2023-03-23T03:10:02;4.40;99.90
11005;DHT22;5555;59.622;16.556;2023-03-23T03:18:13;4.30;99.90
11005;DHT22;5555;59.622;16.556;2023-03-23T03:20:46;4.30;99.90
11005;DHT22;5555;59.622;16.556;2023-03-23T03:23:14;4.30;99.90
11005;DHT22;5555;59.622;16.556;2023-03-23T03:25:43;4.30;99.90
11005;DHT22;5555;59.622;16.556;2023-03-23T03:28:15;4.30;99.90
11005;DHT22;5555;59.622;16.556;2023-03-23T03:30:42;4.30;99.90
11005;DHT22;5555;59.622;16.556;2023-03-23T03:33:09;4.30;99.90
11005;DHT22;5555;59.622;16.556;2023-03-23T03:35:37;4.30;99.90
11005;DHT22;5555;59.622;16.556;2023-03-23T03:38:07;4.30;99.90
11005;DHT22;5555;59.622;16.556;2023-03-23T03:40:34;4.30;99.90
11005;DHT22;5555;59.622;16.556;2023-03-23T03:42:59;4.40;99.90
11005;DHT22;5555;59.622;16.556;2023-03-23T03:45:25;4.40;99.90
11005;DHT22;5555;59.622;16.556;2023-03-23T03:47:51;4.50;99.90
11005;DHT22;5555;59.622;16.556;2023-03-23T03:50:16;4.50;99.90
11005;DHT22;5555;59.622;16.556;2023-03-23T03:52:42;4.60;99.90
11005;DHT22;5555;59.622;16.556;2023-03-23T03:55:09;4.60;99.90
11005;DHT22;5555;59.622;16.556;2023-03-23T03:57:35;4.60;99.90
11005;DHT22;5555;59.622;16.556;2023-03-23T04:00:03;4.60;99.90
11005;DHT22;5555;59.622;16.556;2023-03-23T04:02:39;4.70;99.90
11005;DHT22;5555;59.622;16.556;2023-03-23T04:05:06;4.80;99.90
11005;DHT22;5555;59.622;16.556;2023-03-23T04:07:31;4.80;99.90
11005;DHT22;5555;59.622;16.556;2023-03-23T04:09:57;4.80;99.90
11005;DHT22;5555;59.622;16.556;2023-03-23T04:12:23;4.90;99.90
11005;DHT22;5555;59.622;16.556;2023-03-23T04:14:48;4.90;99.90
11005;DHT22;5555;59.622;16.556;2023-03-23T04:17:14;4.90;99.90
11005;DHT22;5555;59.622;16.556;2023-03-23T04:19:40;5.00;99.90
11005;DHT22;5555;59.622;16.556;2023-03-23T04:22:06;5.00;99.90
11005;DHT22;5555;59.622;16.556;2023-03-23T04:24:32;5.00;99.90
11005;DHT22;5555;59.622;16.556;2023-03-23T04:26:59;5.00;99.90
11005;DHT22;5555;59.622;16.556;2023-03-23T04:29:24;4.90;99.90
11005;DHT22;5555;59.622;16.556;2023-03-23T04:31:50;4.90;99.90
11005;DHT22;5555;59.622;16.556;2023-03-23T04:34:18;4.90;99.90
11005;DHT22;5555;59.622;16.556;2023-03-23T04:36:44;4.90;99.90
11005;DHT22;5555;59.622;16.556;2023-03-23T04:39:11;4.90;99.90
11005;DHT22;5555;59.622;16.556;2023-03-23T04:41:37;5.00;99.90
11005;DHT22;5555;59.622;16.556;2023-03-23T04:44:03;5.00;99.90
11005;DHT22;5555;59.622;16.556;2023-03-23T04:46:30;5.00;99.90
11005;DHT22;5555;59.622;16.556;2023-03-23T04:48:57;4.90;99.90
11005;DHT22;5555;59.622;16.556;2023-03-23T04:51:25;4.90;99.90
11005;DHT22;5555;59.622;16.556;2023-03-23T04:53:51;4.90;99.90
11005;DHT22;5555;59.622;16.556;2023-03-23T04:56:17;4.90;99.90
11005;DHT22;5555;59.622;16.556;2023-03-23T04:58:44;4.90;99.90
11005;DHT22;5555;59.622;16.556;2023-03-23T05:01:10;4.90;99.90
11005;DHT22;5555;59.622;16.556;2023-03-23T05:03:39;4.90;99.90
11005;DHT22;5555;59.622;16.556;2023-03-23T05:06:05;4.90;99.90
11005;DHT22;5555;59.622;16.556;2023-03-23T05:08:32;4.90;99.90
11005;DHT22;5555;59.622;16.556;2023-03-23T05:10:59;4.90;99.90
11005;DHT22;5555;59.622;16.556;2023-03-23T05:13:26;4.90;99.90
11005;DHT22;5555;59.622;16.556;2023-03-23T05:15:52;4.90;99.90
11005;DHT22;5555;59.622;16.556;2023-03-23T05:18:17;4.80;99.90
11005;DHT22;5555;59.622;16.556;2023-03-23T05:20:43;4.80;99.90
11005;DHT22;5555;59.622;16.556;2023-03-23T05:23:11;4.70;99.90
11005;DHT22;5555;59.622;16.556;2023-03-23T05:25:38;4.80;99.90
11005;DHT22;5555;59.622;16.556;2023-03-23T05:28:14;4.70;99.90
11005;DHT22;5555;59.622;16.556;2023-03-23T05:30:40;4.80;99.90
11005;DHT22;5555;59.622;16.556;2023-03-23T05:33:06;4.80;99.90
11005;DHT22;5555;59.622;16.556;2023-03-23T05:35:31;4.80;99.90
11005;DHT22;5555;59.622;16.556;2023-03-23T05:37:57;4.80;99.90
11005;DHT22;5555;59.622;16.556;2023-03-23T05:40:23;4.80;99.90
11005;DHT22;5555;59.622;16.556;2023-03-23T05:42:51;4.90;99.90
11005;DHT22;5555;59.622;16.556;2023-03-23T05:45:17;4.90;99.90
11005;DHT22;5555;59.622;16.556;2023-03-23T05:47:43;4.90;99.90
11005;DHT22;5555;59.622;16.556;2023-03-23T05:50:10;4.90;99.90
11005;DHT22;5555;59.622;16.556;2023-03-23T05:52:36;5.00;99.90
11005;DHT22;5555;59.622;16.556;2023-03-23T05:55:03;5.00;99.90
11005;DHT22;5555;59.622;16.556;2023-03-23T05:57:30;5.10;99.90
11005;DHT22;5555;59.622;16.556;2023-03-23T05:59:56;5.20;99.90
11005;DHT22;5555;59.622;16.556;2023-03-23T06:02:23;5.20;99.90
11005;DHT22;5555;59.622;16.556;2023-03-23T06:04:50;5.20;99.90
11005;DHT22;5555;59.622;16.556;2023-03-23T06:07:16;5.30;99.90
11005;DHT22;5555;59.622;16.556;2023-03-23T06:09:42;5.30;99.90
11005;DHT22;5555;59.622;16.556;2023-03-23T06:12:08;5.30;99.90
11005;DHT22;5555;59.622;16.556;2023-03-23T06:14:35;5.20;99.90
11005;DHT22;5555;59.622;16.556;2023-03-23T06:17:01;5.20;99.90
11005;DHT22;5555;59.622;16.556;2023-03-23T06:19:27;5.30;99.90
11005;DHT22;5555;59.622;16.556;2023-03-23T06:21:56;5.30;99.90
11005;DHT22;5555;59.622;16.556;2023-03-23T06:24:22;5.40;99.90
11005;DHT22;5555;59.622;16.556;2023-03-23T06:26:47;5.40;99.90
11005;DHT22;5555;59.622;16.556;2023-03-23T06:29:14;5.50;99.90
11005;DHT22;5555;59.622;16.556;2023-03-23T06:31:42;5.50;99.90
11005;DHT22;5555;59.622;16.556;2023-03-23T06:34:09;5.50;99.90
11005;DHT22;5555;59.622;16.556;2023-03-23T06:36:35;5.50;99.90
11005;DHT22;5555;59.622;16.556;2023-03-23T06:39:02;5.60;99.90
11005;DHT22;5555;59.622;16.556;2023-03-23T06:41:30;5.60;99.90
11005;DHT22;5555;59.622;16.556;2023-03-23T06:43:56;5.60;99.90
11005;DHT22;5555;59.622;16.556;2023-03-23T06:46:21;5.70;99.90
11005;DHT22;5555;59.622;16.556;2023-03-23T06:48:47;5.60;99.90
11005;DHT22;5555;59.622;16.556;2023-03-23T06:51:15;5.70;99.90
11005;DHT22;5555;59.622;16.556;2023-03-23T06:53:41;5.70;99.90
11005;DHT22;5555;59.622;16.556;2023-03-23T06:56:07;5.70;99.90
11005;DHT22;5555;59.622;16.556;2023-03-23T06:58:33;5.60;99.90
11005;DHT22;5555;59.622;16.556;2023-03-23T07:00:59;5.80;99.90
11005;DHT22;5555;59.622;16.556;2023-03-23T07:03:24;5.80;99.90
11005;DHT22;5555;59.622;16.556;2023-03-23T07:05:51;5.80;99.90
11005;DHT22;5555;59.622;16.556;2023-03-23T07:08:17;5.90;99.90
11005;DHT22;5555;59.622;16.556;2023-03-23T07:10:43;6.00;99.90
11005;DHT22;5555;59.622;16.556;2023-03-23T07:13:09;6.10;99.90
11005;DHT22;5555;59.622;16.556;2023-03-23T07:15:34;6.10;99.90
11005;DHT22;5555;59.622;16.556;2023-03-23T07:18:01;6.20;99.90
11005;DHT22;5555;59.622;16.556;2023-03-23T07:20:26;6.20;99.90
11005;DHT22;5555;59.622;16.556;2023-03-23T07:22:53;6.20;99.90
11005;DHT22;5555;59.622;16.556;2023-03-23T07:25:19;6.30;99.90
11005;DHT22;5555;59.622;16.556;2023-03-23T07:27:45;6.40;99.90
11005;DHT22;5555;59.622;16.556;2023-03-23T07:30:12;6.40;99.90
11005;DHT22;5555;59.622;16.556;2023-03-23T07:32:39;6.60;99.90
11005;DHT22;5555;59.622;16.556;2023-03-23T07:35:04;6.50;99.90
11005;DHT22;5555;59.622;16.556;2023-03-23T07:37:30;6.60;99.90
11005;DHT22;5555;59.622;16.556;2023-03-23T07:39:57;6.40;99.90
11005;DHT22;5555;59.622;16.556;2023-03-23T07:42:23;6.30;99.90
11005;DHT22;5555;59.622;16.556;2023-03-23T07:44:49;6.40;99.90
11005;DHT22;5555;59.622;16.556;2023-03-23T07:47:14;6.50;99.90
11005;DHT22;5555;59.622;16.556;2023-03-23T07:49:40;6.50;99.90
11005;DHT22;5555;59.622;16.556;2023-03-23T07:52:06;6.80;99.90
11005;DHT22;5555;59.622;16.556;2023-03-23T07:54:32;7.30;99.90
11005;DHT22;5555;59.622;16.556;2023-03-23T07:56:57;7.40;99.90
11005;DHT22;5555;59.622;16.556;2023-03-23T07:59:23;7.60;99.90
11005;DHT22;5555;59.622;16.556;2023-03-23T08:01:48;7.60;99.90
11005;DHT22;5555;59.622;16.556;2023-03-23T08:04:14;7.60;99.90
11005;DHT22;5555;59.622;16.556;2023-03-23T08:06:41;7.50;99.90
11005;DHT22;5555;59.622;16.556;2023-03-23T08:09:07;7.30;99.90
11005;DHT22;5555;59.622;16.556;2023-03-23T08:11:37;7.10;99.90
11005;DHT22;5555;59.622;16.556;2023-03-23T08:14:04;7.10;99.90
11005;DHT22;5555;59.622;16.556;2023-03-23T08:16:31;7.00;99.90
11005;DHT22;5555;59.622;16.556;2023-03-23T08:18:57;6.90;99.90
11005;DHT22;5555;59.622;16.556;2023-03-23T08:21:23;6.70;99.90
11005;DHT22;5555;59.622;16.556;2023-03-23T08:23:49;6.70;99.90
11005;DHT22;5555;59.622;16.556;2023-03-23T08:26:15;6.60;99.90
11005;DHT22;5555;59.622;16.556;2023-03-23T08:28:42;6.70;99.90
11005;DHT22;5555;59.622;16.556;2023-03-23T08:31:14;6.80;99.90
11005;DHT22;5555;59.622;16.556;2023-03-23T08:33:40;6.70;99.90
11005;DHT22;5555;59.622;16.556;2023-03-23T08:36:07;7.00;99.90
11005;DHT22;5555;59.622;16.556;2023-03-23T08:38:34;7.30;99.90
11005;DHT22;5555;59.622;16.556;2023-03-23T08:41:01;7.30;99.90
11005;DHT22;5555;59.622;16.556;2023-03-23T08:43:29;7.50;99.90
11005;DHT22;5555;59.622;16.556;2023-03-23T08:45:55;7.80;99.90
11005;DHT22;5555;59.622;16.556;2023-03-23T08:48:21;8.10;99.90
11005;DHT22;5555;59.622;16.556;2023-03-23T08:50:48;7.90;99.90
11005;DHT22;5555;59.622;16.556;2023-03-23T08:53:14;7.70;99.90
11005;DHT22;5555;59.622;16.556;2023-03-23T08:55:41;7.40;99.90
11005;DHT22;5555;59.622;16.556;2023-03-23T08:58:06;7.20;99.90
11005;DHT22;5555;59.622;16.556;2023-03-23T09:00:32;7.10;99.90
11005;DHT22;5555;59.622;16.556;2023-03-23T09:02:58;6.90;99.90
11005;DHT22;5555;59.622;16.556;2023-03-23T09:05:26;6.80;99.90
11005;DHT22;5555;59.622;16.556;2023-03-23T09:07:55;6.70;99.90
11005;DHT22;5555;59.622;16.556;2023-03-23T09:10:21;6.80;99.90
11005;DHT22;5555;59.622;16.556;2023-03-23T09:12:48;6.90;99.90
11005;DHT22;5555;59.622;16.556;2023-03-23T09:15:16;6.90;99.90
11005;DHT22;5555;59.622;16.556;2023-03-23T09:17:45;7.20;99.90
11005;DHT22;5555;59.622;16.556;2023-03-23T09:20:12;7.50;99.90
11005;DHT22;5555;59.622;16.556;2023-03-23T09:22:44;7.70;99.90
11005;DHT22;5555;59.622;16.556;2023-03-23T09:25:12;8.00;99.90
11005;DHT22;5555;59.622;16.556;2023-03-23T09:27:39;8.10;99.90
11005;DHT22;5555;59.622;16.556;2023-03-23T09:30:11;8.00;99.90
11005;DHT22;5555;59.622;16.556;2023-03-23T09:32:38;7.80;99.90
11005;DHT22;5555;59.622;16.556;2023-03-23T09:35:06;7.80;99.90
11005;DHT22;5555;59.622;16.556;2023-03-23T09:37:38;7.80;99.90
11005;DHT22;5555;59.622;16.556;2023-03-23T09:40:06;8.30;99.90
11005;DHT22;5555;59.622;16.556;2023-03-23T09:42:57;8.30;99.90
11005;DHT22;5555;59.622;16.556;2023-03-23T09:46:52;8.50;99.90
11005;DHT22;5555;59.622;16.556;2023-03-23T09:51:24;8.40;99.90
11005;DHT22;5555;59.622;16.556;2023-03-23T09:53:55;8.20;99.90
11005;DHT22;5555;59.622;16.556;2023-03-23T09:56:23;8.50;99.90
11005;DHT22;5555;59.622;16.556;2023-03-23T09:59:17;8.40;99.90
11005;DHT22;5555;59.622;16.556;2023-03-23T10:01:51;8.40;99.90
11005;DHT22;5555;59.622;16.556;2023-03-23T10:04:28;8.50;99.90
11005;DHT22;5555;59.622;16.556;2023-03-23T10:07:08;8.60;99.90
11005;DHT22;5555;59.622;16.556;2023-03-23T10:09:36;8.70;99.90
11005;DHT22;5555;59.622;16.556;2023-03-23T10:12:04;9.20;99.90
11005;DHT22;5555;59.622;16.556;2023-03-23T10:18:27;9.40;99.90
11005;DHT22;5555;59.622;16.556;2023-03-23T10:20:58;9.40;99.90
11005;DHT22;5555;59.622;16.556;2023-03-23T10:32:02;9.70;99.90
11005;DHT22;5555;59.622;16.556;2023-03-23T10:34:32;9.80;99.90
11005;DHT22;5555;59.622;16.556;2023-03-23T10:37:46;9.80;99.90
11005;DHT22;5555;59.622;16.556;2023-03-23T10:40:11;9.70;99.90
11005;DHT22;5555;59.622;16.556;2023-03-23T10:42:40;9.80;99.90
11005;DHT22;5555;59.622;16.556;2023-03-23T10:45:23;9.90;99.90
11005;DHT22;5555;59.622;16.556;2023-03-23T10:50:39;10.20;99.90
11005;DHT22;5555;59.622;16.556;2023-03-23T10:53:19;10.50;99.90
11005;DHT22;5555;59.622;16.556;2023-03-23T10:55:45;10.90;99.90
11005;DHT22;5555;59.622;16.556;2023-03-23T10:58:23;11.00;99.90
11005;DHT22;5555;59.622;16.556;2023-03-23T11:00:50;11.00;99.90
11005;DHT22;5555;59.622;16.556;2023-03-23T11:05:50;11.00;99.90
11005;DHT22;5555;59.622;16.556;2023-03-23T11:08:21;10.90;99.90
11005;DHT22;5555;59.622;16.556;2023-03-23T11:10:56;11.20;99.90
11005;DHT22;5555;59.622;16.556;2023-03-23T11:13:27;11.20;99.90
11005;DHT22;5555;59.622;16.556;2023-03-23T11:15:54;11.20;99.90
11005;DHT22;5555;59.622;16.556;2023-03-23T11:21:02;11.20;99.90
11005;DHT22;5555;59.622;16.556;2023-03-23T11:23:41;11.40;99.90
11005;DHT22;5555;59.622;16.556;2023-03-23T11:26:25;11.50;99.90
11005;DHT22;5555;59.622;16.556;2023-03-23T11:29:12;11.80;99.90
11005;DHT22;5555;59.622;16.556;2023-03-23T11:31:41;12.00;99.90
11005;DHT22;5555;59.622;16.556;2023-03-23T11:34:16;11.90;99.90
11005;DHT22;5555;59.622;16.556;2023-03-23T11:36:49;12.20;99.90
11005;DHT22;5555;59.622;16.556;2023-03-23T11:39:23;12.40;99.90
11005;DHT22;5555;59.622;16.556;2023-03-23T11:41:49;12.80;99.90
11005;DHT22;5555;59.622;16.556;2023-03-23T11:44:15;13.10;99.90
11005;DHT22;5555;59.622;16.556;2023-03-23T11:50:22;13.10;99.90
11005;DHT22;5555;59.622;16.556;2023-03-23T11:58:18;13.80;99.90
11005;DHT22;5555;59.622;16.556;2023-03-23T12:00:58;13.80;99.90
11005;DHT22;5555;59.622;16.556;2023-03-23T12:06:19;14.00;99.90
11005;DHT22;5555;59.622;16.556;2023-03-23T12:11:23;14.60;99.90
11005;DHT22;5555;59.622;16.556;2023-03-23T12:17:06;14.50;99.90
11005;DHT22;5555;59.622;16.556;2023-03-23T12:25:16;16.10;99.90
11005;DHT22;5555;59.622;16.556;2023-03-23T12:27:55;15.30;99.90
11005;DHT22;5555;59.622;16.556;2023-03-23T12:30:42;15.20;99.90
11005;DHT22;5555;59.622;16.556;2023-03-23T12:36:12;15.40;99.90
11005;DHT22;5555;59.622;16.556;2023-03-23T12:41:23;15.80;99.90
11005;DHT22;5555;59.622;16.556;2023-03-23T12:44:07;15.80;99.90
11005;DHT22;5555;59.622;16.556;2023-03-23T12:49:35;16.30;99.90
11005;DHT22;5555;59.622;16.556;2023-03-23T12:52:14;16.90;99.90
11005;DHT22;5555;59.622;16.556;2023-03-23T12:54:47;16.60;99.90
11005;DHT22;5555;59.622;16.556;2023-03-23T13:07:55;17.40;99.90
11005;DHT22;5555;59.622;16.556;2023-03-23T13:10:29;17.80;99.90
11005;DHT22;5555;59.622;16.556;2023-03-23T13:12:57;18.70;99.90
11005;DHT22;5555;59.622;16.556;2023-03-23T13:18:20;19.40;99.90
11005;DHT22;5555;59.622;16.556;2023-03-23T13:20:58;18.40;99.90
11005;DHT22;5555;59.622;16.556;2023-03-23T13:23:33;18.30;99.90
11005;DHT22;5555;59.622;16.556;2023-03-23T13:26:06;19.60;99.90
11005;DHT22;5555;59.622;16.556;2023-03-23T13:31:30;18.70;99.90
11005;DHT22;5555;59.622;16.556;2023-03-23T13:34:24;18.80;99.90
11005;DHT22;5555;59.622;16.556;2023-03-23T13:37:06;19.80;99.90
11005;DHT22;5555;59.622;16.556;2023-03-23T13:39:47;20.30;99.90
11005;DHT22;5555;59.622;16.556;2023-03-23T13:47:24;20.70;98.40
11005;DHT22;5555;59.622;16.556;2023-03-23T13:50:24;20.70;98.30
11005;DHT22;5555;59.622;16.556;2023-03-23T13:52:59;19.80;98.10
11005;DHT22;5555;59.622;16.556;2023-03-23T13:55:41;20.40;98.00
11005;DHT22;5555;59.622;16.556;2023-03-23T14:00:34;20.40;97.80
11005;DHT22;5555;59.622;16.556;2023-03-23T14:03:14;19.80;98.50
11005;DHT22;5555;59.622;16.556;2023-03-23T14:06:07;19.90;97.30
11005;DHT22;5555;59.622;16.556;2023-03-23T14:08:37;19.50;97.50
11005;DHT22;5555;59.622;16.556;2023-03-23T14:11:22;19.90;97.20
11005;DHT22;5555;59.622;16.556;2023-03-23T14:14:14;19.50;97.40
11005;DHT22;5555;59.622;16.556;2023-03-23T14:16:42;19.70;96.70
11005;DHT22;5555;59.622;16.556;2023-03-23T14:19:24;19.00;97.20
11005;DHT22;5555;59.622;16.556;2023-03-23T14:24:26;20.00;97.20
11005;DHT22;5555;59.622;16.556;2023-03-23T14:27:01;20.70;97.10
11005;DHT22;5555;59.622;16.556;2023-03-23T14:29:27;21.00;97.20
11005;DHT22;5555;59.622;16.556;2023-03-23T14:31:57;21.60;96.50
11005;DHT22;5555;59.622;16.556;2023-03-23T14:34:31;21.60;96.20
11005;DHT22;5555;59.622;16.556;2023-03-23T14:36:58;20.80;95.00
11005;DHT22;5555;59.622;16.556;2023-03-23T14:39:29;22.20;95.20
11005;DHT22;5555;59.622;16.556;2023-03-23T14:42:04;22.10;95.60
11005;DHT22;5555;59.622;16.556;2023-03-23T14:44:33;22.20;95.40
11005;DHT22;5555;59.622;16.556;2023-03-23T14:47:03;21.90;94.80
11005;DHT22;5555;59.622;16.556;2023-03-23T14:49:35;21.60;95.10
11005;DHT22;5555;59.622;16.556;2023-03-23T14:52:17;21.40;94.60
11005;DHT22;5555;59.622;16.556;2023-03-23T14:54:44;21.90;94.40
11005;DHT22;5555;59.622;16.556;2023-03-23T14:59:48;21.50;94.50
11005;DHT22;5555;59.622;16.556;2023-03-23T15:02:20;20.60;95.10
11005;DHT22;5555;59.622;16.556;2023-03-23T15:04:49;21.00;94.50
11005;DHT22;5555;59.622;16.556;2023-03-23T15:07:16;20.60;94.70
11005;DHT22;5555;59.622;16.556;2023-03-23T15:09:44;20.00;94.70
11005;DHT22;5555;59.622;16.556;2023-03-23T15:12:25;20.10;94.80
11005;DHT22;5555;59.622;16.556;2023-03-23T15:14:56;20.30;94.80
11005;DHT22;5555;59.622;16.556;2023-03-23T15:17:28;20.60;94.50
11005;DHT22;5555;59.622;16.556;2023-03-23T15:19:55;19.80;94.70
11005;DHT22;5555;59.622;16.556;2023-03-23T15:22:45;18.70;95.10
11005;DHT22;5555;59.622;16.556;2023-03-23T15:27:57;16.30;97.10
11005;DHT22;5555;59.622;16.556;2023-03-23T15:33:04;15.90;97.80
11005;DHT22;5555;59.622;16.556;2023-03-23T15:35:34;15.00;98.50
11005;DHT22;5555;59.622;16.556;2023-03-23T15:38:03;14.30;99.30
11005;DHT22;5555;59.622;16.556;2023-03-23T15:40:34;13.90;99.90
11005;DHT22;5555;59.622;16.556;2023-03-23T15:43:27;13.60;99.90
11005;DHT22;5555;59.622;16.556;2023-03-23T15:48:48;12.90;99.90
11005;DHT22;5555;59.622;16.556;2023-03-23T15:51:15;12.80;99.90
11005;DHT22;5555;59.622;16.556;2023-03-23T15:53:41;12.70;99.90
11005;DHT22;5555;59.622;16.556;2023-03-23T15:56:09;12.50;99.90
11005;DHT22;5555;59.622;16.556;2023-03-23T15:58:36;12.40;99.90
11005;DHT22;5555;59.622;16.556;2023-03-23T16:01:07;12.10;99.90
11005;DHT22;5555;59.622;16.556;2023-03-23T16:06:19;12.10;99.90
11005;DHT22;5555;59.622;16.556;2023-03-23T16:08:46;12.00;99.90
11005;DHT22;5555;59.622;16.556;2023-03-23T16:11:13;11.90;99.90
11005;DHT22;5555;59.622;16.556;2023-03-23T16:13:39;11.80;99.90
11005;DHT22;5555;59.622;16.556;2023-03-23T16:16:09;11.80;99.90
11005;DHT22;5555;59.622;16.556;2023-03-23T16:18:37;11.70;99.90
11005;DHT22;5555;59.622;16.556;2023-03-23T16:21:02;11.50;99.90
11005;DHT22;5555;59.622;16.556;2023-03-23T16:23:28;11.30;99.90
11005;DHT22;5555;59.622;16.556;2023-03-23T16:25:54;11.20;99.90
11005;DHT22;5555;59.622;16.556;2023-03-23T16:28:20;11.20;99.90
11005;DHT22;5555;59.622;16.556;2023-03-23T16:30:47;11.20;99.90
11005;DHT22;5555;59.622;16.556;2023-03-23T16:33:13;11.10;99.90
11005;DHT22;5555;59.622;16.556;2023-03-23T16:35:39;11.00;99.90
11005;DHT22;5555;59.622;16.556;2023-03-23T16:38:05;10.90;99.90
11005;DHT22;5555;59.622;16.556;2023-03-23T16:40:31;10.90;99.90
11005;DHT22;5555;59.622;16.556;2023-03-23T16:42:58;10.90;99.90
11005;DHT22;5555;59.622;16.556;2023-03-23T16:45:23;10.80;99.90
11005;DHT22;5555;59.622;16.556;2023-03-23T16:47:51;10.80;99.90
11005;DHT22;5555;59.622;16.556;2023-03-23T16:50:19;10.60;99.90
11005;DHT22;5555;59.622;16.556;2023-03-23T16:52:46;10.50;99.90
11005;DHT22;5555;59.622;16.556;2023-03-23T16:55:15;10.40;99.90
11005;DHT22;5555;59.622;16.556;2023-03-23T16:57:41;10.40;99.90
11005;DHT22;5555;59.622;16.556;2023-03-23T17:00:10;10.40;99.90
11005;DHT22;5555;59.622;16.556;2023-03-23T17:02:37;10.40;99.90
11005;DHT22;5555;59.622;16.556;2023-03-23T17:05:04;10.30;99.90
11005;DHT22;5555;59.622;16.556;2023-03-23T17:07:30;10.30;99.90
11005;DHT22;5555;59.622;16.556;2023-03-23T17:09:56;10.30;99.90
11005;DHT22;5555;59.622;16.556;2023-03-23T17:12:21;10.20;99.90
11005;DHT22;5555;59.622;16.556;2023-03-23T17:14:47;10.10;99.90
11005;DHT22;5555;59.622;16.556;2023-03-23T17:17:13;10.10;99.90
11005;DHT22;5555;59.622;16.556;2023-03-23T17:19:38;10.00;99.90
11005;DHT22;5555;59.622;16.556;2023-03-23T17:22:04;10.00;99.90
11005;DHT22;5555;59.622;16.556;2023-03-23T17:24:30;9.90;99.90
11005;DHT22;5555;59.622;16.556;2023-03-23T17:26:56;9.90;99.90
11005;DHT22;5555;59.622;16.556;2023-03-23T17:29:21;9.80;99.90
11005;DHT22;5555;59.622;16.556;2023-03-23T17:31:48;9.80;99.90
11005;DHT22;5555;59.622;16.556;2023-03-23T17:34:15;9.70;99.90
11005;DHT22;5555;59.622;16.556;2023-03-23T17:36:41;9.70;99.90
11005;DHT22;5555;59.622;16.556;2023-03-23T17:39:07;9.60;99.90
11005;DHT22;5555;59.622;16.556;2023-03-23T17:41:33;9.50;99.90
11005;DHT22;5555;59.622;16.556;2023-03-23T17:43:59;9.50;99.90
11005;DHT22;5555;59.622;16.556;2023-03-23T17:46:25;9.40;99.90